createdAt,value
2023-03-08T00:54:55.922Z,500.00
2023-03-08T00:55:56.873Z,500.00
2023-03-08T00:56:56.866Z,500.00
2023-03-08T00:57:56.850Z,500.00
2023-03-08T00:58:56.847Z,500.00
2023-03-08T00:59:56.836Z,500.00
2023-03-08T01:00:56.872Z,438.00
2023-03-08T01:01:56.829Z,405.00
2023-03-08T01:02:56.807Z,400.00
2023-03-08T01:03:56.823Z,400.00
2023-03-08T01:04:56.793Z,406.00
2023-03-08T01:05:56.788Z,423.00
2023-03-08T01:06:56.777Z,452.00
2023-03-08T01:07:56.763Z,475.00
2023-03-08T01:08:56.754Z,500.00
2023-03-08T01:09:56.751Z,500.00
2023-03-08T01:11:56.731Z,502.00
2023-03-08T01:12:56.729Z,500.00
2023-03-08T01:13:56.716Z,500.00
2023-03-08T01:14:56.698Z,502.00
2023-03-08T01:15:56.709Z,500.00
2023-03-08T01:16:56.687Z,500.00
2023-03-08T01:17:56.675Z,500.00
2023-03-08T01:18:56.669Z,500.00
2023-03-08T01:19:56.668Z,503.00
2023-03-08T01:20:56.653Z,500.00
2023-03-08T01:21:56.639Z,503.00
2023-03-08T01:22:56.637Z,500.00
2023-03-08T01:23:56.625Z,501.00
2023-03-08T01:24:56.619Z,500.00
2023-03-08T01:25:56.606Z,505.00
2023-03-08T01:26:56.622Z,506.00
2023-03-08T01:27:56.591Z,502.00
2023-03-08T01:28:56.586Z,502.00
2023-03-08T01:29:56.574Z,500.00
2023-03-08T01:30:56.568Z,507.00
2023-03-08T01:31:56.561Z,501.00
2023-03-08T01:32:56.544Z,505.00
2023-03-08T01:33:56.539Z,500.00
2023-03-08T01:34:56.533Z,501.00
2023-03-08T01:35:56.555Z,503.00
2023-03-08T01:36:56.521Z,505.00
2023-03-08T01:37:56.509Z,506.00
2023-03-08T01:38:56.495Z,502.00
2023-03-08T01:39:56.484Z,501.00
2023-03-08T01:40:56.478Z,501.00
2023-03-08T01:42:56.480Z,500.00
2023-03-08T04:26:55.009Z,510.00
2023-03-08T06:41:53.817Z,500.00
2023-03-08T07:00:53.691Z,565.00
2023-03-08T07:02:53.689Z,631.00
2023-03-08T07:08:53.607Z,1134.00
2023-03-08T07:09:53.607Z,1116.00
2023-03-08T07:15:53.607Z,1098.00
2023-03-08T07:17:53.512Z,1084.00
2023-03-08T07:23:53.469Z,1060.00
2023-03-08T07:46:53.339Z,688.00
2023-03-08T07:52:08.816Z,711.00
2023-03-08T07:55:53.200Z,598.00
2023-03-08T08:11:53.090Z,555.00
2023-03-08T08:25:52.900Z,506.00
2023-03-08T08:29:52.873Z,499.00
2023-03-08T08:30:52.863Z,514.00
2023-03-08T08:38:08.470Z,575.00
2023-03-08T08:39:00.188Z,576.00
2023-03-08T08:57:53.250Z,784.00
2023-03-08T08:59:52.603Z,805.00
2023-03-08T09:02:53.048Z,820.00
2023-03-08T09:12:09.504Z,500.00
2023-03-08T09:13:10.542Z,500.00
2023-03-08T09:14:10.495Z,500.00
2023-03-08T09:15:10.478Z,500.00
2023-03-08T09:16:10.581Z,500.00
2023-03-08T09:17:10.465Z,500.00
2023-03-08T09:18:10.457Z,500.00
2023-03-08T09:19:11.450Z,514.00
2023-03-08T09:20:10.449Z,510.00
2023-03-08T09:21:10.428Z,518.00
2023-03-08T09:22:10.471Z,513.00
2023-03-08T09:23:10.500Z,508.00
2023-03-08T09:24:10.417Z,503.00
2023-03-08T09:25:10.417Z,522.00
2023-03-08T09:26:10.386Z,532.00
2023-03-08T09:27:10.486Z,524.00
2023-03-08T09:28:10.367Z,517.00
2023-03-08T09:29:10.395Z,500.00
2023-03-08T09:30:10.374Z,508.00
2023-03-08T09:31:10.340Z,503.00
2023-03-08T09:32:10.665Z,500.00
2023-03-08T09:33:10.327Z,500.00
2023-03-08T09:34:10.318Z,504.00
2023-03-08T09:35:10.312Z,500.00
2023-03-08T09:36:10.315Z,517.00
2023-03-08T09:37:10.294Z,555.00
2023-03-08T09:38:10.483Z,544.00
2023-03-08T09:39:10.308Z,542.00
2023-03-08T09:40:10.302Z,564.00
2023-03-08T09:41:10.314Z,536.00
2023-03-08T09:42:10.251Z,542.00
2023-03-08T09:43:10.693Z,568.00
2023-03-08T09:44:11.586Z,549.00
2023-03-08T09:45:13.440Z,521.00
2023-03-08T09:46:10.261Z,476.00
2023-03-08T09:47:10.220Z,461.00
2023-03-08T09:48:10.241Z,430.00
2023-03-08T09:49:10.547Z,439.00
2023-03-08T09:50:10.196Z,412.00
2023-03-08T09:51:10.177Z,400.00
2023-03-08T09:52:10.176Z,469.00
2023-03-08T09:53:10.159Z,511.00
2023-03-08T09:54:10.486Z,508.00
2023-03-08T09:55:09.202Z,529.00
2023-03-08T09:56:10.127Z,492.00
2023-03-08T09:57:10.277Z,500.00
2023-03-08T09:58:10.116Z,500.00
2023-03-08T09:59:10.486Z,505.00
2023-03-08T10:00:10.092Z,519.00
2023-03-08T10:01:10.235Z,522.00
2023-03-08T10:02:10.073Z,517.00
2023-03-08T10:03:10.519Z,560.00
2023-03-08T10:04:10.100Z,601.00
2023-03-08T10:05:13.588Z,571.00
2023-03-08T10:06:10.032Z,572.00
2023-03-08T10:07:10.027Z,561.00
2023-03-08T10:08:10.025Z,580.00
2023-03-08T10:09:10.007Z,582.00
2023-03-08T10:10:10.486Z,633.00
2023-03-08T10:11:09.991Z,616.00
2023-03-08T10:12:13.468Z,569.00
2023-03-08T10:13:09.997Z,570.00
2023-03-08T10:14:10.906Z,578.00
2023-03-08T10:15:10.485Z,578.00
2023-03-08T10:16:09.941Z,587.00
2023-03-08T10:17:10.395Z,565.00
2023-03-08T10:18:09.931Z,590.00
2023-03-08T10:19:09.985Z,589.00
2023-03-08T10:20:10.273Z,565.00
2023-03-08T10:21:10.594Z,571.00
2023-03-08T10:22:09.891Z,560.00
2023-03-08T10:23:09.883Z,732.00
2023-03-08T10:24:09.873Z,802.00
2023-03-08T10:25:09.865Z,869.00
2023-03-08T10:26:09.863Z,858.00
2023-03-08T10:27:09.996Z,956.00
2023-03-08T10:28:09.836Z,945.00
2023-03-08T10:29:09.885Z,1028.00
2023-03-08T10:30:09.824Z,1041.00
2023-03-08T10:31:09.835Z,1011.00
2023-03-08T10:32:10.099Z,1051.00
2023-03-08T10:33:09.815Z,1160.00
2023-03-08T10:34:09.997Z,1100.00
2023-03-08T10:35:09.782Z,1123.00
2023-03-08T10:36:09.783Z,1173.00
2023-03-08T10:37:10.005Z,1182.00
2023-03-08T10:38:09.756Z,1216.00
2023-03-08T10:39:09.753Z,1258.00
2023-03-08T10:40:09.739Z,1262.00
2023-03-08T10:41:09.728Z,1221.00
2023-03-08T10:42:10.000Z,1275.00
2023-03-08T10:43:09.711Z,1239.00
2023-03-08T10:44:09.703Z,1234.00
2023-03-08T10:45:09.771Z,1267.00
2023-03-08T10:46:10.044Z,907.00
2023-03-08T10:47:09.673Z,725.00
2023-03-08T10:48:09.668Z,590.00
2023-03-08T10:49:09.666Z,589.00
2023-03-08T10:50:09.648Z,629.00
2023-03-08T10:51:09.640Z,743.00
2023-03-08T10:52:09.633Z,746.00
2023-03-08T10:53:09.631Z,841.00
2023-03-08T10:54:09.613Z,827.00
2023-03-08T10:55:09.604Z,853.00
2023-03-08T10:56:09.619Z,938.00
2023-03-08T10:57:09.590Z,1001.00
2023-03-08T10:58:09.584Z,1084.00
2023-03-08T10:59:09.572Z,1105.00
2023-03-08T11:00:12.038Z,1239.00
2023-03-08T11:01:10.035Z,1233.00
2023-03-08T11:02:09.544Z,1248.00
2023-03-08T11:03:09.538Z,1267.00
2023-03-08T11:04:09.529Z,1306.00
2023-03-08T11:05:09.518Z,1429.00
2023-03-08T11:06:12.197Z,1467.00
2023-03-08T11:07:09.498Z,1468.00
2023-03-08T11:08:09.588Z,1471.00
2023-03-08T11:09:09.481Z,1476.00
2023-03-08T11:10:09.510Z,1508.00
2023-03-08T11:11:09.498Z,1560.00
2023-03-08T11:12:11.097Z,1543.00
2023-03-08T11:13:09.444Z,1545.00
2023-03-08T11:14:09.444Z,1549.00
2023-03-08T11:15:09.425Z,1556.00
2023-03-08T11:16:09.471Z,1554.00
2023-03-08T11:17:09.445Z,1570.00
2023-03-08T11:18:11.450Z,1557.00
2023-03-08T11:19:09.532Z,1558.00
2023-03-08T11:20:09.386Z,1561.00
2023-03-08T11:21:09.380Z,1576.00
2023-03-08T11:22:09.367Z,1581.00
2023-03-08T11:23:09.513Z,1649.00
2023-03-08T11:24:09.392Z,1645.00
2023-03-08T11:25:09.606Z,1633.00
2023-03-08T11:26:09.339Z,1660.00
2023-03-08T11:27:09.408Z,1598.00
2023-03-08T11:28:09.469Z,1604.00
2023-03-08T11:29:09.340Z,1644.00
2023-03-08T11:30:11.691Z,1687.00
2023-03-08T11:31:09.333Z,1688.00
2023-03-08T11:32:09.345Z,1687.00
2023-03-08T11:33:09.708Z,1641.00
2023-03-08T11:34:09.341Z,1647.00
2023-03-08T11:35:09.258Z,1719.00
2023-03-08T11:36:10.960Z,1663.00
2023-03-08T11:37:09.247Z,1659.00
2023-03-08T11:38:09.223Z,1604.00
2023-03-08T11:39:09.217Z,1610.00
2023-03-08T11:40:09.211Z,1621.00
2023-03-08T11:41:09.545Z,1616.00
2023-03-08T11:42:10.973Z,1588.00
2023-03-08T11:43:09.216Z,1589.00
2023-03-08T11:44:09.649Z,1599.00
2023-03-08T11:45:09.715Z,1611.00
2023-03-08T11:46:09.567Z,1590.00
2023-03-08T11:47:09.144Z,1528.00
2023-03-08T11:48:10.836Z,1657.00
2023-03-08T11:49:09.590Z,1658.00
2023-03-08T11:50:09.117Z,1585.00
2023-03-08T11:51:09.548Z,1536.00
2023-03-08T11:52:09.554Z,1545.00
2023-03-08T11:53:09.091Z,1610.00
2023-03-08T11:54:09.084Z,1545.00
2023-03-08T11:55:09.107Z,1552.00
2023-03-08T11:56:09.067Z,1540.00
2023-03-08T11:57:09.053Z,1444.00
2023-03-08T11:58:09.047Z,1458.00
2023-03-08T11:59:09.575Z,1548.00
2023-03-08T12:00:09.027Z,1459.00
2023-03-08T12:01:09.020Z,1364.00
2023-03-08T12:02:09.011Z,1361.00
2023-03-08T12:03:09.073Z,1351.00
2023-03-08T12:04:09.191Z,1389.00
2023-03-08T12:05:09.057Z,1422.00
2023-03-08T12:06:22.723Z,1409.00
2023-03-08T12:07:09.105Z,1411.00
2023-03-08T12:08:08.986Z,1422.00
2023-03-08T12:09:08.999Z,1450.00
2023-03-08T12:10:08.989Z,1484.00
2023-03-08T12:11:08.930Z,1526.00
2023-03-08T12:12:09.030Z,1512.00
2023-03-08T12:13:08.914Z,962.00
2023-03-08T12:14:08.903Z,712.00
2023-03-08T12:15:08.931Z,835.00
2023-03-08T12:16:08.911Z,944.00
2023-03-08T12:17:09.179Z,1040.00
2023-03-08T12:18:08.871Z,1009.00
2023-03-08T12:19:08.890Z,1254.00
2023-03-08T12:20:08.848Z,842.00
2023-03-08T12:21:08.956Z,711.00
2023-03-08T12:22:09.036Z,1610.00
2023-03-08T12:23:08.964Z,1792.00
2023-03-08T12:24:09.105Z,2365.00
2023-03-08T12:25:08.805Z,3013.00
2023-03-08T12:26:08.794Z,3394.00
2023-03-08T12:27:08.809Z,3574.00
2023-03-08T12:28:08.814Z,3518.00
2023-03-08T12:29:08.822Z,3459.00
2023-03-08T12:30:08.771Z,3300.00
2023-03-08T12:31:21.432Z,3316.00
2023-03-08T12:32:09.257Z,3212.00
2023-03-08T12:33:08.853Z,3172.00
2023-03-08T12:34:11.326Z,2966.00
2023-03-08T12:35:08.729Z,2822.00
2023-03-08T12:36:08.812Z,2596.00
2023-03-08T12:37:09.103Z,2426.00
2023-03-08T12:38:08.770Z,2277.00
2023-03-08T12:39:09.189Z,2252.00
2023-03-08T12:40:08.715Z,2058.00
2023-03-08T12:41:08.704Z,1915.00
2023-03-08T12:42:09.065Z,1822.00
2023-03-08T12:43:08.649Z,1683.00
2023-03-08T12:44:08.645Z,1595.00
2023-03-08T12:45:08.632Z,1431.00
2023-03-08T12:46:08.738Z,1399.00
2023-03-08T12:47:08.632Z,1374.00
2023-03-08T12:48:08.615Z,1352.00
2023-03-08T12:49:08.602Z,1217.00
2023-03-08T12:50:08.591Z,1193.00
2023-03-08T12:51:09.075Z,1067.00
2023-03-08T12:52:08.609Z,965.00
2023-03-08T12:53:08.593Z,916.00
2023-03-08T12:54:09.083Z,864.00
2023-03-08T12:55:08.548Z,825.00
2023-03-08T12:56:08.538Z,777.00
2023-03-08T12:57:08.530Z,717.00
2023-03-08T12:58:08.518Z,680.00
2023-03-08T12:59:08.514Z,634.00
2023-03-08T13:00:08.508Z,636.00
2023-03-08T13:01:08.596Z,615.00
2023-03-08T13:02:08.498Z,609.00
2023-03-08T13:03:08.579Z,638.00
2023-03-08T13:04:08.491Z,607.00
2023-03-08T13:05:08.513Z,600.00
2023-03-08T13:06:08.452Z,477.00
2023-03-08T13:07:08.448Z,455.00
2023-03-08T13:08:08.435Z,500.00
2023-03-08T13:09:08.505Z,560.00
2023-03-08T13:10:08.413Z,666.00
2023-03-08T13:11:08.560Z,717.00
2023-03-08T13:12:08.398Z,725.00
2023-03-08T13:13:08.410Z,833.00
2023-03-08T13:14:08.383Z,867.00
2023-03-08T13:15:08.414Z,965.00
2023-03-08T13:16:08.368Z,988.00
2023-03-08T13:17:08.358Z,954.00
2023-03-08T13:18:08.368Z,1177.00
2023-03-08T13:19:08.407Z,1220.00
2023-03-08T13:20:08.400Z,1248.00
2023-03-08T13:21:08.567Z,1250.00
2023-03-08T13:22:08.313Z,1249.00
2023-03-08T13:23:08.468Z,1208.00
2023-03-08T13:24:08.292Z,1216.00
2023-03-08T13:25:08.367Z,1278.00
2023-03-08T13:26:08.327Z,1355.00
2023-03-08T13:27:08.268Z,1383.00
2023-03-08T13:28:08.263Z,1385.00
2023-03-08T13:29:08.356Z,1429.00
2023-03-08T13:30:08.257Z,1494.00
2023-03-08T13:31:08.320Z,1491.00
2023-03-08T13:32:08.247Z,1538.00
2023-03-08T13:33:08.213Z,1455.00
2023-03-08T13:34:08.207Z,1460.00
2023-03-08T13:35:08.207Z,1467.00
2023-03-08T13:36:08.257Z,1459.00
2023-03-08T13:37:08.184Z,1453.00
2023-03-08T13:38:08.171Z,1469.00
2023-03-08T13:39:08.164Z,1501.00
2023-03-08T13:40:08.158Z,1528.00
2023-03-08T13:41:08.631Z,1560.00
2023-03-08T13:42:08.163Z,1550.00
2023-03-08T13:43:08.152Z,1408.00
2023-03-08T13:44:08.147Z,1474.00
2023-03-08T13:45:08.111Z,1540.00
2023-03-08T13:46:08.230Z,1540.00
2023-03-08T13:47:09.562Z,1531.00
2023-03-08T13:48:08.085Z,1543.00
2023-03-08T13:49:08.073Z,1592.00
2023-03-08T13:50:08.070Z,1595.00
2023-03-08T13:51:08.146Z,1456.00
2023-03-08T13:52:08.049Z,1394.00
2023-03-08T13:53:08.058Z,1516.00
2023-03-08T13:54:08.117Z,1452.00
2023-03-08T13:55:08.122Z,1392.00
2023-03-08T13:56:08.039Z,1316.00
2023-03-08T13:57:08.061Z,1248.00
2023-03-08T13:58:08.058Z,1135.00
2023-03-08T13:59:08.040Z,1175.00
2023-03-08T14:00:08.045Z,1146.00
2023-03-08T14:01:08.011Z,1297.00
2023-03-08T14:02:08.097Z,1339.00
2023-03-08T14:03:08.063Z,1333.00
2023-03-08T14:04:08.212Z,1314.00
2023-03-08T14:05:07.941Z,1208.00
2023-03-08T14:06:08.049Z,1266.00
2023-03-08T14:07:07.918Z,1295.00
2023-03-08T14:08:07.931Z,1294.00
2023-03-08T14:09:07.901Z,1232.00
2023-03-08T14:10:07.890Z,1190.00
2023-03-08T14:11:07.881Z,1240.00
2023-03-08T14:12:07.912Z,1201.00
2023-03-08T14:13:07.904Z,1237.00
2023-03-08T14:14:07.896Z,1103.00
2023-03-08T14:15:07.921Z,1101.00
2023-03-08T14:16:07.932Z,1149.00
2023-03-08T14:17:07.875Z,1128.00
2023-03-08T14:18:07.884Z,1151.00
2023-03-08T14:19:07.956Z,1154.00
2023-03-08T14:20:07.842Z,1143.00
2023-03-08T14:21:07.933Z,1057.00
2023-03-08T14:22:07.803Z,1020.00
2023-03-08T14:23:07.834Z,980.00
2023-03-08T14:24:07.780Z,972.00
2023-03-08T14:25:07.836Z,950.00
2023-03-08T14:26:07.755Z,922.00
2023-03-08T14:27:07.742Z,920.00
2023-03-08T14:28:07.769Z,876.00
2023-03-08T14:29:08.133Z,789.00
2023-03-08T14:30:07.713Z,933.00
2023-03-08T14:31:07.848Z,947.00
2023-03-08T14:32:07.892Z,862.00
2023-03-08T14:33:07.687Z,841.00
2023-03-08T14:34:08.082Z,820.00
2023-03-08T14:35:07.688Z,807.00
2023-03-08T14:36:07.710Z,814.00
2023-03-08T14:37:07.653Z,802.00
2023-03-08T14:38:07.643Z,830.00
2023-03-08T14:39:08.088Z,820.00
2023-03-08T14:40:07.624Z,802.00
2023-03-08T14:41:07.622Z,775.00
2023-03-08T14:42:07.698Z,842.00
2023-03-08T14:43:07.603Z,790.00
2023-03-08T14:44:07.600Z,820.00
2023-03-08T14:45:07.617Z,829.00
2023-03-08T14:46:07.685Z,835.00
2023-03-08T14:47:07.565Z,806.00
2023-03-08T14:48:07.552Z,833.00
2023-03-08T14:49:07.594Z,867.00
2023-03-08T14:50:07.596Z,880.00
2023-03-08T14:51:07.582Z,872.00
2023-03-08T14:52:09.371Z,865.00
2023-03-08T14:53:07.589Z,919.00
2023-03-08T14:54:07.591Z,845.00
2023-03-08T14:55:07.486Z,829.00
2023-03-08T14:56:07.485Z,782.00
2023-03-08T14:57:07.471Z,761.00
2023-03-08T14:58:07.465Z,762.00
2023-03-08T14:59:10.412Z,751.00
2023-03-08T15:00:07.784Z,753.00
2023-03-08T15:01:07.472Z,758.00
2023-03-08T15:02:07.654Z,762.00
2023-03-08T15:03:07.425Z,766.00
2023-03-08T15:04:07.443Z,752.00
2023-03-08T15:05:07.400Z,761.00
2023-03-08T15:06:07.395Z,730.00
2023-03-08T15:07:07.385Z,762.00
2023-03-08T15:08:07.374Z,791.00
2023-03-08T15:09:07.367Z,801.00
2023-03-08T15:10:07.359Z,742.00
2023-03-08T15:11:07.359Z,715.00
2023-03-08T15:12:07.338Z,647.00
2023-03-08T15:13:07.350Z,629.00
2023-03-08T15:14:07.321Z,658.00
2023-03-08T15:15:07.309Z,667.00
2023-03-08T15:16:07.368Z,649.00
2023-03-08T15:17:07.382Z,636.00
2023-03-08T15:18:07.289Z,725.00
2023-03-08T15:19:07.597Z,899.00
2023-03-08T15:20:07.262Z,891.00
2023-03-08T15:21:14.226Z,965.00
2023-03-08T15:22:07.296Z,969.00
2023-03-08T15:23:07.247Z,985.00
2023-03-08T15:25:07.223Z,1015.00
2023-03-08T15:34:07.700Z,938.00
2023-03-08T18:04:06.115Z,1576.00
2023-03-08T18:05:06.195Z,1581.00
2023-03-08T18:06:06.252Z,1592.00
2023-03-08T18:07:06.020Z,1605.00
2023-03-08T18:08:05.999Z,1597.00
2023-03-08T18:09:06.010Z,1590.00
2023-03-08T18:10:05.983Z,1579.00
2023-03-08T18:11:06.534Z,1585.00
2023-03-08T18:12:05.971Z,1584.00
2023-03-08T18:13:05.992Z,1578.00
2023-03-08T18:14:05.963Z,1577.00
2023-03-08T18:15:05.938Z,1601.00
2023-03-08T18:16:06.001Z,1594.00
2023-03-08T18:17:05.925Z,1592.00
2023-03-08T18:18:05.912Z,1603.00
2023-03-08T18:19:05.912Z,1597.00
2023-03-08T18:20:05.902Z,1590.00
2023-03-08T18:21:13.072Z,1594.00
2023-03-08T18:22:05.884Z,1595.00
2023-03-08T18:23:05.869Z,1596.00
2023-03-08T18:24:05.871Z,1598.00
2023-03-08T18:25:05.872Z,1590.00
2023-03-08T18:26:05.848Z,1576.00
2023-03-08T18:27:05.844Z,1576.00
2023-03-08T18:28:05.837Z,1577.00
2023-03-08T18:29:05.924Z,1567.00
2023-03-08T18:30:05.809Z,1558.00
2023-03-08T18:31:05.850Z,1563.00
2023-03-08T18:32:05.928Z,1560.00
2023-03-08T18:33:06.704Z,1554.00
2023-03-08T18:34:05.771Z,1577.00
2023-03-08T18:35:05.762Z,1558.00
2023-03-08T18:36:05.768Z,1577.00
2023-03-08T18:37:05.744Z,1573.00
2023-03-08T18:38:05.749Z,1568.00
2023-03-08T18:39:05.801Z,1553.00
2023-03-08T18:40:05.725Z,1566.00
2023-03-08T18:41:05.713Z,1539.00
2023-03-08T18:42:05.704Z,1550.00
2023-03-08T18:43:05.700Z,1546.00
2023-03-08T18:44:05.683Z,1537.00
2023-03-08T18:45:05.759Z,1547.00
2023-03-08T18:46:05.675Z,1543.00
2023-03-08T18:47:05.660Z,1539.00
2023-03-08T18:48:05.657Z,1540.00
2023-03-08T18:49:05.639Z,1545.00
2023-03-08T18:50:05.623Z,1553.00
2023-03-08T18:51:05.619Z,1545.00
2023-03-08T18:52:05.608Z,1539.00
2023-03-08T18:53:05.598Z,1550.00
2023-03-08T18:54:05.627Z,1535.00
2023-03-08T18:55:05.579Z,1543.00
2023-03-08T18:56:05.870Z,1531.00
2023-03-08T18:57:05.579Z,1530.00
2023-03-08T18:58:05.556Z,1536.00
2023-03-08T18:59:05.547Z,1545.00
2023-03-08T19:00:05.535Z,1555.00
2023-03-08T19:01:05.633Z,1542.00
2023-03-08T19:02:05.558Z,1553.00
2023-03-08T19:03:05.513Z,1554.00
2023-03-08T19:04:05.517Z,1537.00
2023-03-08T19:05:05.497Z,1542.00
2023-03-08T19:06:05.489Z,1549.00
2023-03-08T19:07:05.478Z,1559.00
2023-03-08T19:08:05.470Z,1544.00
2023-03-08T19:09:05.460Z,1538.00
2023-03-08T19:10:05.468Z,1560.00
2023-03-08T19:11:05.445Z,1557.00
2023-03-08T19:12:05.440Z,1553.00
2023-03-08T19:13:05.425Z,1540.00
2023-03-08T19:14:05.420Z,1540.00
2023-03-08T19:15:05.411Z,1533.00
2023-03-08T19:16:05.426Z,1525.00
2023-03-08T19:17:05.421Z,1510.00
2023-03-08T19:18:05.386Z,1525.00
2023-03-08T19:19:05.375Z,1523.00
2023-03-08T19:20:05.361Z,1536.00
2023-03-08T19:21:05.358Z,1541.00
2023-03-08T19:22:05.366Z,1524.00
2023-03-08T19:23:05.344Z,1529.00
2023-03-08T19:24:05.342Z,1526.00
2023-03-08T19:25:05.324Z,1516.00
2023-03-08T19:26:05.313Z,1528.00
2023-03-08T19:27:05.309Z,1525.00
2023-03-08T19:28:05.298Z,1525.00
2023-03-08T19:29:05.376Z,1530.00
2023-03-08T19:30:05.277Z,1513.00
2023-03-08T19:31:05.267Z,1516.00
2023-03-08T19:32:05.294Z,1533.00
2023-03-08T19:33:05.272Z,1540.00
2023-03-08T19:34:05.247Z,1523.00
2023-03-08T19:35:05.233Z,1513.00
2023-03-08T19:36:05.297Z,1530.00
2023-03-08T19:37:05.217Z,1522.00
2023-03-08T19:38:05.213Z,1544.00
2023-03-08T19:39:05.222Z,1522.00
2023-03-08T19:40:05.195Z,1538.00
2023-03-08T19:41:05.181Z,1543.00
2023-03-08T19:42:05.172Z,1539.00
2023-03-08T19:43:05.163Z,1547.00
2023-03-08T19:44:05.156Z,1531.00
2023-03-08T19:45:05.151Z,1536.00
2023-03-08T19:46:05.175Z,1538.00
2023-03-08T19:47:05.144Z,1540.00
2023-03-08T19:48:05.122Z,1538.00
2023-03-08T19:49:05.257Z,1538.00
2023-03-08T19:50:05.109Z,1526.00
2023-03-08T19:51:05.144Z,1527.00
2023-03-08T19:52:05.109Z,1537.00
2023-03-08T19:53:05.078Z,1519.00
2023-03-08T19:54:05.074Z,1534.00
2023-03-08T19:55:05.090Z,1538.00
2023-03-08T19:56:05.060Z,1531.00
2023-03-08T19:57:05.056Z,1524.00
2023-03-08T19:58:05.039Z,1516.00
2023-03-08T19:59:05.030Z,1532.00
2023-03-08T20:00:05.020Z,1530.00
2023-03-08T20:01:05.047Z,1540.00
2023-03-08T20:02:04.999Z,1536.00
2023-03-08T20:03:04.996Z,1536.00
2023-03-08T20:04:04.992Z,1530.00
2023-03-08T20:05:05.003Z,1540.00
2023-03-08T20:06:04.979Z,1541.00
2023-03-08T20:07:05.006Z,1538.00
2023-03-08T20:08:04.951Z,1527.00
2023-03-08T20:09:04.941Z,1529.00
2023-03-08T20:10:15.777Z,1519.00
2023-03-08T20:11:04.925Z,1520.00
2023-03-08T20:12:04.913Z,1520.00
2023-03-08T20:13:04.946Z,1505.00
2023-03-08T20:14:04.897Z,1512.00
2023-03-08T20:15:04.887Z,1502.00
2023-03-08T20:16:04.878Z,1492.00
2023-03-08T20:17:04.972Z,1492.00
2023-03-08T20:18:04.913Z,1491.00
2023-03-08T20:19:04.913Z,1494.00
2023-03-08T20:20:04.845Z,1466.00
2023-03-08T20:21:04.872Z,1464.00
2023-03-08T20:22:04.831Z,1480.00
2023-03-08T20:23:04.814Z,1476.00
2023-03-08T20:24:04.807Z,1477.00
2023-03-08T20:25:04.800Z,1468.00
2023-03-08T20:26:05.371Z,1448.00
2023-03-08T20:27:04.785Z,1439.00
2023-03-08T20:28:04.770Z,1438.00
2023-03-08T20:29:04.766Z,1424.00
2023-03-08T20:30:04.752Z,1421.00
2023-03-08T20:31:04.764Z,1431.00
2023-03-08T20:32:04.778Z,1443.00
2023-03-08T20:33:04.724Z,1452.00
2023-03-08T20:34:04.732Z,1450.00
2023-03-08T20:35:04.706Z,1443.00
2023-03-08T20:36:04.810Z,1417.00
2023-03-08T20:37:04.709Z,1424.00
2023-03-08T20:38:04.682Z,1405.00
2023-03-08T20:39:04.677Z,1412.00
2023-03-08T20:40:04.692Z,1417.00
2023-03-08T20:41:04.659Z,1405.00
2023-03-08T20:42:04.650Z,1403.00
2023-03-08T20:43:04.639Z,1393.00
2023-03-08T20:44:04.632Z,1406.00
2023-03-08T20:45:04.628Z,1424.00
2023-03-08T20:46:04.726Z,1411.00
2023-03-08T20:47:04.597Z,1404.00
2023-03-08T20:48:04.597Z,1394.00
2023-03-08T20:49:04.586Z,1407.00
2023-03-08T20:50:04.578Z,1402.00
2023-03-08T20:51:04.569Z,1384.00
2023-03-08T20:52:04.584Z,1387.00
2023-03-08T20:53:04.574Z,1390.00
2023-03-08T20:54:04.543Z,1389.00
2023-03-08T20:55:04.825Z,1377.00
2023-03-08T20:56:04.523Z,1376.00
2023-03-08T20:57:04.525Z,1373.00
2023-03-08T20:58:04.506Z,1395.00
2023-03-08T20:59:04.505Z,1380.00
2023-03-08T21:00:04.487Z,1368.00
2023-03-08T21:01:04.519Z,1372.00
2023-03-08T21:02:04.469Z,1367.00
2023-03-08T21:03:04.464Z,1380.00
2023-03-08T21:04:04.472Z,1370.00
2023-03-08T21:05:04.448Z,1372.00
2023-03-08T21:06:04.436Z,1357.00
2023-03-08T21:07:04.428Z,1364.00
2023-03-08T21:08:04.424Z,1359.00
2023-03-08T21:09:04.469Z,1363.00
2023-03-08T21:10:04.411Z,1360.00
2023-03-08T21:11:04.396Z,1370.00
2023-03-08T21:12:04.391Z,1369.00
2023-03-08T21:13:04.375Z,1342.00
2023-03-08T21:14:04.400Z,1351.00
2023-03-08T21:15:05.188Z,1342.00
2023-03-08T21:16:04.481Z,1343.00
2023-03-08T21:17:04.347Z,1341.00
2023-03-08T21:18:04.334Z,1333.00
2023-03-08T21:19:04.398Z,1333.00
2023-03-08T21:20:04.314Z,1339.00
2023-03-08T21:21:04.303Z,1332.00
2023-03-08T21:22:04.332Z,1334.00
2023-03-08T21:23:04.292Z,1327.00
2023-03-08T21:24:04.323Z,1331.00
2023-03-08T21:25:04.306Z,1334.00
2023-03-08T21:26:04.395Z,1339.00
2023-03-08T21:27:04.274Z,1322.00
2023-03-08T21:28:04.248Z,1328.00
2023-03-08T21:29:04.233Z,1304.00
2023-03-08T21:30:04.227Z,1301.00
2023-03-08T21:31:04.285Z,1305.00
2023-03-08T21:32:04.215Z,1316.00
2023-03-08T21:33:04.195Z,1328.00
2023-03-08T21:34:04.189Z,1306.00
2023-03-08T21:35:04.235Z,1307.00
2023-03-08T21:36:04.249Z,1324.00
2023-03-08T21:37:04.160Z,1301.00
2023-03-08T21:38:04.161Z,1293.00
2023-03-08T21:39:04.148Z,1296.00
2023-03-08T21:40:05.113Z,1302.00
2023-03-08T21:41:04.156Z,1299.00
2023-03-08T21:42:04.119Z,1305.00
2023-03-08T21:43:04.105Z,1277.00
2023-03-08T21:44:04.101Z,1276.00
2023-03-08T21:45:04.090Z,1266.00
2023-03-08T21:46:04.141Z,1265.00
2023-03-08T21:47:04.069Z,1268.00
2023-03-08T21:48:04.063Z,1258.00
2023-03-08T21:49:04.080Z,1269.00
2023-03-08T21:50:04.060Z,1273.00
2023-03-08T21:51:04.047Z,1268.00
2023-03-08T21:52:04.030Z,1271.00
2023-03-08T21:53:04.030Z,1278.00
2023-03-08T21:54:04.020Z,1271.00
2023-03-08T21:55:04.006Z,1263.00
2023-03-08T21:56:03.995Z,1258.00
2023-03-08T21:57:04.008Z,1261.00
2023-03-08T21:58:03.972Z,1277.00
2023-03-08T21:59:03.984Z,1276.00
2023-03-08T22:00:03.967Z,1262.00
2023-03-08T22:01:03.947Z,1257.00
2023-03-08T22:02:03.972Z,1261.00
2023-03-08T22:03:04.038Z,1260.00
2023-03-08T22:04:03.927Z,1257.00
2023-03-08T22:05:03.919Z,1262.00
2023-03-08T22:06:03.906Z,1261.00
2023-03-08T22:07:03.900Z,1247.00
2023-03-08T22:08:03.889Z,1243.00
2023-03-08T22:09:03.890Z,1250.00
2023-03-08T22:10:03.875Z,1247.00
2023-03-08T22:11:03.871Z,1241.00
2023-03-08T22:12:03.858Z,1228.00
2023-03-08T22:13:03.895Z,1229.00
2023-03-08T22:14:03.837Z,1236.00
2023-03-08T22:15:03.822Z,1228.00
2023-03-08T22:16:03.876Z,1229.00
2023-03-08T22:17:03.817Z,1235.00
2023-03-08T22:18:03.795Z,1231.00
2023-03-08T22:19:03.792Z,1255.00
2023-03-08T22:20:03.810Z,1257.00
2023-03-08T22:21:03.772Z,1255.00
2023-03-08T22:22:03.763Z,1250.00
2023-03-08T22:23:03.754Z,1250.00
2023-03-08T22:24:03.749Z,1238.00
2023-03-08T22:25:03.737Z,1214.00
2023-03-08T22:26:03.728Z,1221.00
2023-03-08T22:27:03.719Z,1229.00
2023-03-08T22:28:03.720Z,1235.00
2023-03-08T22:29:03.738Z,1240.00
2023-03-08T22:30:03.694Z,1242.00
2023-03-08T22:31:03.764Z,1242.00
2023-03-08T22:32:03.679Z,1246.00
2023-03-08T22:33:03.668Z,1225.00
2023-03-08T22:34:03.659Z,1237.00
2023-03-08T22:35:03.651Z,1217.00
2023-03-08T22:36:03.703Z,1233.00
2023-03-08T22:37:03.641Z,1231.00
2023-03-08T22:38:03.629Z,1243.00
2023-03-08T22:39:03.625Z,1242.00
2023-03-08T22:40:03.608Z,1235.00
2023-03-08T22:41:03.605Z,1233.00
2023-03-08T22:42:03.593Z,1233.00
2023-03-08T22:43:03.589Z,1218.00
2023-03-08T22:44:03.572Z,1220.00
2023-03-08T22:45:03.598Z,1221.00
2023-03-08T22:46:03.607Z,1227.00
2023-03-08T22:47:03.552Z,1209.00
2023-03-08T22:48:03.536Z,1225.00
2023-03-08T22:49:03.530Z,1216.00
2023-03-08T22:50:03.528Z,1223.00
2023-03-08T22:51:10.713Z,1209.00
2023-03-08T22:52:03.505Z,1210.00
2023-03-08T22:53:03.510Z,1213.00
2023-03-08T22:54:03.485Z,1214.00
2023-03-08T22:55:03.476Z,1221.00